sensor_id;sensor_type;location;lat;lon;timestamp;P1;durP1;ratioP1;P2;durP2;ratioP2
54368;SDS011;40266;52.434;17.056;2023-06-10T00:01:04;14.60;;;6.80;;
54368;SDS011;40266;52.434;17.056;2023-06-10T00:04:07;13.60;;;7.50;;
54368;SDS011;40266;52.434;17.056;2023-06-10T00:06:50;17.30;;;7.70;;
54368;SDS011;40266;52.434;17.056;2023-06-10T00:09:34;13.90;;;7.20;;
54368;SDS011;40266;52.434;17.056;2023-06-10T00:12:19;14.60;;;7.30;;
54368;SDS011;40266;52.434;17.056;2023-06-10T00:15:06;17.90;;;7.80;;
54368;SDS011;40266;52.434;17.056;2023-06-10T00:17:50;13.30;;;8.20;;
54368;SDS011;40266;52.434;17.056;2023-06-10T00:20:35;12.30;;;6.80;;
54368;SDS011;40266;52.434;17.056;2023-06-10T00:23:21;12.60;;;6.70;;
54368;SDS011;40266;52.434;17.056;2023-06-10T00:26:05;14.90;;;7.40;;
54368;SDS011;40266;52.434;17.056;2023-06-10T00:28:48;15.80;;;7.50;;
54368;SDS011;40266;52.434;17.056;2023-06-10T00:31:32;13.90;;;7.50;;
54368;SDS011;40266;52.434;17.056;2023-06-10T00:34:15;13.00;;;7.40;;
54368;SDS011;40266;52.434;17.056;2023-06-10T00:36:58;13.40;;;8.80;;
54368;SDS011;40266;52.434;17.056;2023-06-10T00:39:41;13.50;;;7.20;;
54368;SDS011;40266;52.434;17.056;2023-06-10T00:42:24;13.10;;;8.20;;
54368;SDS011;40266;52.434;17.056;2023-06-10T00:45:09;14.90;;;7.60;;
54368;SDS011;40266;52.434;17.056;2023-06-10T00:47:52;14.20;;;8.20;;
54368;SDS011;40266;52.434;17.056;2023-06-10T00:50:35;14.70;;;7.70;;
54368;SDS011;40266;52.434;17.056;2023-06-10T00:53:22;17.50;;;7.80;;
54368;SDS011;40266;52.434;17.056;2023-06-10T00:56:06;15.30;;;7.90;;
54368;SDS011;40266;52.434;17.056;2023-06-10T00:58:50;15.40;;;7.70;;
54368;SDS011;40266;52.434;17.056;2023-06-10T01:01:33;15.40;;;8.50;;
54368;SDS011;40266;52.434;17.056;2023-06-10T01:04:17;17.60;;;8.40;;
54368;SDS011;40266;52.434;17.056;2023-06-10T01:07:17;12.60;;;7.60;;
54368;SDS011;40266;52.434;17.056;2023-06-10T01:10:11;43.50;;;9.60;;
54368;SDS011;40266;52.434;17.056;2023-06-10T01:13:01;17.80;;;8.60;;
54368;SDS011;40266;52.434;17.056;2023-06-10T01:15:45;20.60;;;8.20;;
54368;SDS011;40266;52.434;17.056;2023-06-10T01:18:31;15.90;;;8.10;;
54368;SDS011;40266;52.434;17.056;2023-06-10T01:21:22;14.50;;;7.70;;
54368;SDS011;40266;52.434;17.056;2023-06-10T01:24:09;17.90;;;8.00;;
54368;SDS011;40266;52.434;17.056;2023-06-10T01:26:55;14.90;;;7.30;;
54368;SDS011;40266;52.434;17.056;2023-06-10T01:29:46;14.80;;;7.30;;
54368;SDS011;40266;52.434;17.056;2023-06-10T01:32:40;14.20;;;7.50;;
54368;SDS011;40266;52.434;17.056;2023-06-10T01:35:31;11.40;;;7.10;;
54368;SDS011;40266;52.434;17.056;2023-06-10T01:38:14;15.30;;;7.40;;
54368;SDS011;40266;52.434;17.056;2023-06-10T01:40:59;17.80;;;7.70;;
54368;SDS011;40266;52.434;17.056;2023-06-10T01:43:44;13.80;;;7.20;;
54368;SDS011;40266;52.434;17.056;2023-06-10T01:46:28;13.10;;;7.10;;
54368;SDS011;40266;52.434;17.056;2023-06-10T01:49:11;13.80;;;7.00;;
54368;SDS011;40266;52.434;17.056;2023-06-10T01:51:58;13.20;;;7.40;;
54368;SDS011;40266;52.434;17.056;2023-06-10T01:54:40;15.20;;;7.30;;
54368;SDS011;40266;52.434;17.056;2023-06-10T01:57:23;16.30;;;8.00;;
54368;SDS011;40266;52.434;17.056;2023-06-10T02:00:07;12.20;;;7.40;;
54368;SDS011;40266;52.434;17.056;2023-06-10T02:02:56;17.40;;;7.20;;
54368;SDS011;40266;52.434;17.056;2023-06-10T02:05:39;17.90;;;7.00;;
54368;SDS011;40266;52.434;17.056;2023-06-10T02:08:23;12.80;;;6.80;;
54368;SDS011;40266;52.434;17.056;2023-06-10T02:11:07;17.40;;;7.70;;
54368;SDS011;40266;52.434;17.056;2023-06-10T02:13:50;16.40;;;8.10;;
54368;SDS011;40266;52.434;17.056;2023-06-10T02:16:33;14.80;;;7.30;;
54368;SDS011;40266;52.434;17.056;2023-06-10T02:19:17;12.80;;;7.00;;
54368;SDS011;40266;52.434;17.056;2023-06-10T02:22:02;11.70;;;7.70;;
54368;SDS011;40266;52.434;17.056;2023-06-10T02:24:45;15.70;;;7.90;;
54368;SDS011;40266;52.434;17.056;2023-06-10T02:27:28;15.00;;;7.80;;
54368;SDS011;40266;52.434;17.056;2023-06-10T02:30:11;15.40;;;8.40;;
54368;SDS011;40266;52.434;17.056;2023-06-10T02:32:55;12.90;;;7.40;;
54368;SDS011;40266;52.434;17.056;2023-06-10T02:35:40;13.90;;;7.90;;
54368;SDS011;40266;52.434;17.056;2023-06-10T02:38:23;15.60;;;7.90;;
54368;SDS011;40266;52.434;17.056;2023-06-10T02:41:07;14.90;;;7.90;;
54368;SDS011;40266;52.434;17.056;2023-06-10T02:43:50;17.60;;;8.10;;
54368;SDS011;40266;52.434;17.056;2023-06-10T02:46:33;13.20;;;7.20;;
54368;SDS011;40266;52.434;17.056;2023-06-10T02:49:18;19.30;;;7.10;;
54368;SDS011;40266;52.434;17.056;2023-06-10T02:52:01;11.40;;;6.50;;
54368;SDS011;40266;52.434;17.056;2023-06-10T02:54:45;14.90;;;7.70;;
54368;SDS011;40266;52.434;17.056;2023-06-10T02:57:28;17.90;;;7.50;;
54368;SDS011;40266;52.434;17.056;2023-06-10T03:00:14;14.60;;;7.20;;
54368;SDS011;40266;52.434;17.056;2023-06-10T03:02:58;15.10;;;7.70;;
54368;SDS011;40266;52.434;17.056;2023-06-10T03:05:48;12.50;;;7.30;;
54368;SDS011;40266;52.434;17.056;2023-06-10T03:08:31;15.20;;;7.70;;
54368;SDS011;40266;52.434;17.056;2023-06-10T03:11:16;11.80;;;6.80;;
54368;SDS011;40266;52.434;17.056;2023-06-10T03:13:59;14.50;;;7.30;;
54368;SDS011;40266;52.434;17.056;2023-06-10T03:16:42;17.00;;;8.40;;
54368;SDS011;40266;52.434;17.056;2023-06-10T03:19:27;14.90;;;8.40;;
54368;SDS011;40266;52.434;17.056;2023-06-10T03:22:11;14.90;;;7.90;;
54368;SDS011;40266;52.434;17.056;2023-06-10T03:25:03;14.30;;;7.10;;
54368;SDS011;40266;52.434;17.056;2023-06-10T03:27:49;17.60;;;7.50;;
54368;SDS011;40266;52.434;17.056;2023-06-10T03:30:33;22.90;;;7.70;;
54368;SDS011;40266;52.434;17.056;2023-06-10T03:33:16;12.40;;;7.10;;
54368;SDS011;40266;52.434;17.056;2023-06-10T03:35:59;12.70;;;6.60;;
54368;SDS011;40266;52.434;17.056;2023-06-10T03:38:43;16.00;;;6.90;;
54368;SDS011;40266;52.434;17.056;2023-06-10T03:41:26;13.60;;;7.40;;
54368;SDS011;40266;52.434;17.056;2023-06-10T03:44:09;14.00;;;7.00;;
54368;SDS011;40266;52.434;17.056;2023-06-10T03:46:52;13.60;;;7.00;;
54368;SDS011;40266;52.434;17.056;2023-06-10T03:49:35;13.10;;;7.00;;
54368;SDS011;40266;52.434;17.056;2023-06-10T03:52:19;13.10;;;7.00;;
54368;SDS011;40266;52.434;17.056;2023-06-10T03:55:02;11.20;;;6.00;;
54368;SDS011;40266;52.434;17.056;2023-06-10T03:57:46;13.00;;;6.90;;
54368;SDS011;40266;52.434;17.056;2023-06-10T04:00:29;11.20;;;6.50;;
54368;SDS011;40266;52.434;17.056;2023-06-10T04:03:12;12.80;;;6.80;;
54368;SDS011;40266;52.434;17.056;2023-06-10T04:06:05;13.90;;;6.90;;
54368;SDS011;40266;52.434;17.056;2023-06-10T04:08:48;13.30;;;6.90;;
54368;SDS011;40266;52.434;17.056;2023-06-10T04:11:31;16.30;;;6.90;;
54368;SDS011;40266;52.434;17.056;2023-06-10T04:14:15;13.40;;;6.60;;
54368;SDS011;40266;52.434;17.056;2023-06-10T04:16:58;17.10;;;6.60;;
54368;SDS011;40266;52.434;17.056;2023-06-10T04:19:42;17.30;;;6.20;;
54368;SDS011;40266;52.434;17.056;2023-06-10T04:22:25;18.70;;;6.90;;
54368;SDS011;40266;52.434;17.056;2023-06-10T04:25:09;12.70;;;6.40;;
54368;SDS011;40266;52.434;17.056;2023-06-10T04:27:54;14.20;;;7.50;;
54368;SDS011;40266;52.434;17.056;2023-06-10T04:30:37;11.50;;;6.40;;
54368;SDS011;40266;52.434;17.056;2023-06-10T04:33:20;11.30;;;6.40;;
54368;SDS011;40266;52.434;17.056;2023-06-10T04:36:04;13.90;;;7.40;;
54368;SDS011;40266;52.434;17.056;2023-06-10T04:38:50;12.00;;;6.30;;
54368;SDS011;40266;52.434;17.056;2023-06-10T04:41:35;16.90;;;6.90;;
54368;SDS011;40266;52.434;17.056;2023-06-10T04:44:18;14.30;;;7.30;;
54368;SDS011;40266;52.434;17.056;2023-06-10T04:47:01;12.20;;;6.70;;
54368;SDS011;40266;52.434;17.056;2023-06-10T04:49:44;15.20;;;6.80;;
54368;SDS011;40266;52.434;17.056;2023-06-10T04:52:27;20.50;;;6.70;;
54368;SDS011;40266;52.434;17.056;2023-06-10T04:55:10;14.90;;;6.80;;
54368;SDS011;40266;52.434;17.056;2023-06-10T04:57:54;13.70;;;6.70;;
54368;SDS011;40266;52.434;17.056;2023-06-10T05:00:37;14.00;;;7.50;;
54368;SDS011;40266;52.434;17.056;2023-06-10T05:03:20;13.60;;;6.40;;
54368;SDS011;40266;52.434;17.056;2023-06-10T05:06:03;18.50;;;6.80;;
54368;SDS011;40266;52.434;17.056;2023-06-10T05:08:47;12.60;;;6.50;;
54368;SDS011;40266;52.434;17.056;2023-06-10T05:11:30;17.40;;;6.60;;
54368;SDS011;40266;52.434;17.056;2023-06-10T05:14:12;15.50;;;6.70;;
54368;SDS011;40266;52.434;17.056;2023-06-10T05:16:56;10.60;;;6.00;;
54368;SDS011;40266;52.434;17.056;2023-06-10T05:19:39;19.20;;;6.80;;
54368;SDS011;40266;52.434;17.056;2023-06-10T05:22:24;14.50;;;5.90;;
54368;SDS011;40266;52.434;17.056;2023-06-10T05:25:07;14.80;;;6.40;;
54368;SDS011;40266;52.434;17.056;2023-06-10T05:27:51;12.10;;;6.20;;
54368;SDS011;40266;52.434;17.056;2023-06-10T05:30:34;11.90;;;6.20;;
54368;SDS011;40266;52.434;17.056;2023-06-10T05:33:17;11.20;;;5.80;;
54368;SDS011;40266;52.434;17.056;2023-06-10T05:36:00;14.30;;;5.90;;
54368;SDS011;40266;52.434;17.056;2023-06-10T05:38:43;13.60;;;6.50;;
54368;SDS011;40266;52.434;17.056;2023-06-10T05:41:26;14.40;;;6.40;;
54368;SDS011;40266;52.434;17.056;2023-06-10T05:44:09;11.00;;;6.40;;
54368;SDS011;40266;52.434;17.056;2023-06-10T05:46:55;17.70;;;6.70;;
54368;SDS011;40266;52.434;17.056;2023-06-10T05:49:38;16.90;;;5.80;;
54368;SDS011;40266;52.434;17.056;2023-06-10T05:52:21;14.50;;;6.30;;
54368;SDS011;40266;52.434;17.056;2023-06-10T05:55:04;13.20;;;5.80;;
54368;SDS011;40266;52.434;17.056;2023-06-10T05:57:57;14.70;;;6.90;;
54368;SDS011;40266;52.434;17.056;2023-06-10T06:00:41;12.80;;;5.90;;
54368;SDS011;40266;52.434;17.056;2023-06-10T06:03:24;20.90;;;7.00;;
54368;SDS011;40266;52.434;17.056;2023-06-10T06:06:07;16.30;;;6.30;;
54368;SDS011;40266;52.434;17.056;2023-06-10T06:08:50;14.70;;;6.70;;
54368;SDS011;40266;52.434;17.056;2023-06-10T06:11:34;17.10;;;6.20;;
54368;SDS011;40266;52.434;17.056;2023-06-10T06:14:18;11.90;;;5.50;;
54368;SDS011;40266;52.434;17.056;2023-06-10T06:17:01;12.20;;;6.40;;
54368;SDS011;40266;52.434;17.056;2023-06-10T06:19:44;13.80;;;5.90;;
54368;SDS011;40266;52.434;17.056;2023-06-10T06:22:27;10.20;;;5.90;;
54368;SDS011;40266;52.434;17.056;2023-06-10T06:25:10;21.50;;;7.20;;
54368;SDS011;40266;52.434;17.056;2023-06-10T06:27:54;15.10;;;6.60;;
54368;SDS011;40266;52.434;17.056;2023-06-10T06:30:37;11.20;;;6.50;;
54368;SDS011;40266;52.434;17.056;2023-06-10T06:33:20;15.30;;;6.50;;
54368;SDS011;40266;52.434;17.056;2023-06-10T06:36:03;16.70;;;6.50;;
54368;SDS011;40266;52.434;17.056;2023-06-10T06:38:46;11.70;;;5.90;;
54368;SDS011;40266;52.434;17.056;2023-06-10T06:41:29;12.70;;;6.30;;
54368;SDS011;40266;52.434;17.056;2023-06-10T06:44:12;15.10;;;5.90;;
54368;SDS011;40266;52.434;17.056;2023-06-10T06:46:59;15.70;;;6.70;;
54368;SDS011;40266;52.434;17.056;2023-06-10T06:49:42;13.60;;;6.30;;
54368;SDS011;40266;52.434;17.056;2023-06-10T06:52:25;12.10;;;6.40;;
54368;SDS011;40266;52.434;17.056;2023-06-10T06:55:08;15.00;;;6.80;;
54368;SDS011;40266;52.434;17.056;2023-06-10T06:57:52;17.60;;;6.80;;
54368;SDS011;40266;52.434;17.056;2023-06-10T07:00:35;12.10;;;6.20;;
54368;SDS011;40266;52.434;17.056;2023-06-10T07:03:18;13.50;;;5.90;;
54368;SDS011;40266;52.434;17.056;2023-06-10T07:06:01;11.30;;;6.40;;
54368;SDS011;40266;52.434;17.056;2023-06-10T07:08:44;18.00;;;6.50;;
54368;SDS011;40266;52.434;17.056;2023-06-10T07:11:27;9.60;;;5.20;;
54368;SDS011;40266;52.434;17.056;2023-06-10T07:14:10;13.40;;;6.30;;
54368;SDS011;40266;52.434;17.056;2023-06-10T07:16:53;15.20;;;6.60;;
54368;SDS011;40266;52.434;17.056;2023-06-10T07:19:36;14.30;;;5.80;;
54368;SDS011;40266;52.434;17.056;2023-06-10T07:22:19;15.00;;;6.40;;
54368;SDS011;40266;52.434;17.056;2023-06-10T07:25:02;15.90;;;6.70;;
54368;SDS011;40266;52.434;17.056;2023-06-10T07:27:46;14.90;;;6.40;;
54368;SDS011;40266;52.434;17.056;2023-06-10T07:30:30;12.80;;;6.20;;
54368;SDS011;40266;52.434;17.056;2023-06-10T07:33:12;14.90;;;6.20;;
54368;SDS011;40266;52.434;17.056;2023-06-10T07:35:55;10.30;;;6.00;;
54368;SDS011;40266;52.434;17.056;2023-06-10T07:38:38;25.30;;;7.10;;
54368;SDS011;40266;52.434;17.056;2023-06-10T07:41:22;13.60;;;5.80;;
54368;SDS011;40266;52.434;17.056;2023-06-10T07:44:07;12.00;;;5.50;;
54368;SDS011;40266;52.434;17.056;2023-06-10T07:46:51;12.40;;;6.30;;
54368;SDS011;40266;52.434;17.056;2023-06-10T07:49:34;18.00;;;5.70;;
54368;SDS011;40266;52.434;17.056;2023-06-10T07:52:17;13.60;;;5.60;;
54368;SDS011;40266;52.434;17.056;2023-06-10T07:55:02;12.10;;;6.00;;
54368;SDS011;40266;52.434;17.056;2023-06-10T07:57:45;13.70;;;5.70;;
54368;SDS011;40266;52.434;17.056;2023-06-10T08:00:28;16.00;;;6.00;;
54368;SDS011;40266;52.434;17.056;2023-06-10T08:03:11;21.10;;;6.00;;
54368;SDS011;40266;52.434;17.056;2023-06-10T08:05:54;13.00;;;5.90;;
54368;SDS011;40266;52.434;17.056;2023-06-10T08:08:37;21.90;;;6.60;;
54368;SDS011;40266;52.434;17.056;2023-06-10T08:11:25;14.00;;;6.40;;
54368;SDS011;40266;52.434;17.056;2023-06-10T08:14:10;17.30;;;5.70;;
54368;SDS011;40266;52.434;17.056;2023-06-10T08:16:53;8.70;;;5.10;;
54368;SDS011;40266;52.434;17.056;2023-06-10T08:19:37;12.20;;;5.60;;
54368;SDS011;40266;52.434;17.056;2023-06-10T08:22:20;14.80;;;5.80;;
54368;SDS011;40266;52.434;17.056;2023-06-10T08:25:03;18.50;;;6.60;;
54368;SDS011;40266;52.434;17.056;2023-06-10T08:27:46;15.30;;;5.50;;
54368;SDS011;40266;52.434;17.056;2023-06-10T08:30:29;10.80;;;5.30;;
54368;SDS011;40266;52.434;17.056;2023-06-10T08:33:12;10.20;;;5.20;;
54368;SDS011;40266;52.434;17.056;2023-06-10T08:35:56;14.80;;;5.60;;
54368;SDS011;40266;52.434;17.056;2023-06-10T08:38:39;20.50;;;6.70;;
54368;SDS011;40266;52.434;17.056;2023-06-10T08:41:21;17.50;;;6.00;;
54368;SDS011;40266;52.434;17.056;2023-06-10T08:47:04;12.00;;;5.20;;
54368;SDS011;40266;52.434;17.056;2023-06-10T08:49:54;13.10;;;4.90;;
54368;SDS011;40266;52.434;17.056;2023-06-10T08:52:41;10.80;;;5.20;;
54368;SDS011;40266;52.434;17.056;2023-06-10T08:55:33;11.50;;;5.00;;
54368;SDS011;40266;52.434;17.056;2023-06-10T08:58:19;10.80;;;4.70;;
54368;SDS011;40266;52.434;17.056;2023-06-10T09:01:02;12.20;;;4.80;;
54368;SDS011;40266;52.434;17.056;2023-06-10T09:03:47;13.10;;;5.70;;
54368;SDS011;40266;52.434;17.056;2023-06-10T09:06:32;11.20;;;5.20;;
54368;SDS011;40266;52.434;17.056;2023-06-10T09:09:16;12.90;;;5.00;;
54368;SDS011;40266;52.434;17.056;2023-06-10T09:12:02;12.80;;;5.30;;
54368;SDS011;40266;52.434;17.056;2023-06-10T09:14:46;12.80;;;5.10;;
54368;SDS011;40266;52.434;17.056;2023-06-10T09:17:29;10.60;;;5.60;;
54368;SDS011;40266;52.434;17.056;2023-06-10T09:20:12;8.80;;;5.20;;
54368;SDS011;40266;52.434;17.056;2023-06-10T09:22:56;18.80;;;5.90;;
54368;SDS011;40266;52.434;17.056;2023-06-10T09:25:39;11.50;;;4.80;;
54368;SDS011;40266;52.434;17.056;2023-06-10T09:28:22;13.80;;;4.70;;
54368;SDS011;40266;52.434;17.056;2023-06-10T09:31:05;23.00;;;6.30;;
54368;SDS011;40266;52.434;17.056;2023-06-10T09:33:51;11.30;;;5.00;;
54368;SDS011;40266;52.434;17.056;2023-06-10T09:36:34;9.10;;;4.80;;
54368;SDS011;40266;52.434;17.056;2023-06-10T09:39:18;10.70;;;5.40;;
54368;SDS011;40266;52.434;17.056;2023-06-10T09:42:01;14.00;;;5.20;;
54368;SDS011;40266;52.434;17.056;2023-06-10T09:44:51;10.30;;;5.10;;
54368;SDS011;40266;52.434;17.056;2023-06-10T09:47:35;10.20;;;5.70;;
54368;SDS011;40266;52.434;17.056;2023-06-10T09:50:18;8.50;;;4.60;;
54368;SDS011;40266;52.434;17.056;2023-06-10T09:53:02;9.80;;;5.60;;
54368;SDS011;40266;52.434;17.056;2023-06-10T09:55:48;13.80;;;5.20;;
54368;SDS011;40266;52.434;17.056;2023-06-10T09:58:38;13.00;;;5.40;;
54368;SDS011;40266;52.434;17.056;2023-06-10T10:01:24;14.20;;;5.40;;
54368;SDS011;40266;52.434;17.056;2023-06-10T10:04:07;12.50;;;5.50;;
54368;SDS011;40266;52.434;17.056;2023-06-10T10:06:51;9.20;;;4.70;;
54368;SDS011;40266;52.434;17.056;2023-06-10T10:09:35;13.60;;;5.80;;
54368;SDS011;40266;52.434;17.056;2023-06-10T10:12:22;17.90;;;5.50;;
54368;SDS011;40266;52.434;17.056;2023-06-10T10:15:10;9.40;;;5.40;;
54368;SDS011;40266;52.434;17.056;2023-06-10T10:18:04;16.00;;;5.20;;
54368;SDS011;40266;52.434;17.056;2023-06-10T10:20:50;11.70;;;5.20;;
54368;SDS011;40266;52.434;17.056;2023-06-10T10:23:36;15.80;;;6.10;;
54368;SDS011;40266;52.434;17.056;2023-06-10T10:26:27;8.50;;;4.80;;
54368;SDS011;40266;52.434;17.056;2023-06-10T10:29:25;10.30;;;4.30;;
54368;SDS011;40266;52.434;17.056;2023-06-10T10:32:14;13.00;;;5.10;;
54368;SDS011;40266;52.434;17.056;2023-06-10T10:37:55;7.60;;;4.50;;
54368;SDS011;40266;52.434;17.056;2023-06-10T10:40:38;11.40;;;5.10;;
54368;SDS011;40266;52.434;17.056;2023-06-10T10:43:22;12.50;;;6.10;;
54368;SDS011;40266;52.434;17.056;2023-06-10T10:46:13;10.60;;;5.30;;
54368;SDS011;40266;52.434;17.056;2023-06-10T10:48:58;12.20;;;5.10;;
54368;SDS011;40266;52.434;17.056;2023-06-10T10:52:00;12.30;;;5.30;;
54368;SDS011;40266;52.434;17.056;2023-06-10T10:54:44;12.60;;;5.60;;
54368;SDS011;40266;52.434;17.056;2023-06-10T10:57:29;9.40;;;4.90;;
54368;SDS011;40266;52.434;17.056;2023-06-10T11:00:12;10.60;;;5.00;;
54368;SDS011;40266;52.434;17.056;2023-06-10T11:03:14;14.40;;;5.20;;
54368;SDS011;40266;52.434;17.056;2023-06-10T11:06:00;14.30;;;5.20;;
54368;SDS011;40266;52.434;17.056;2023-06-10T11:11:30;8.20;;;4.40;;
54368;SDS011;40266;52.434;17.056;2023-06-10T11:14:15;7.10;;;5.10;;
54368;SDS011;40266;52.434;17.056;2023-06-10T11:17:18;10.00;;;5.10;;
54368;SDS011;40266;52.434;17.056;2023-06-10T11:20:03;10.60;;;4.70;;
54368;SDS011;40266;52.434;17.056;2023-06-10T11:22:58;8.10;;;4.50;;
54368;SDS011;40266;52.434;17.056;2023-06-10T11:25:43;13.80;;;5.30;;
54368;SDS011;40266;52.434;17.056;2023-06-10T11:28:27;11.90;;;5.40;;
54368;SDS011;40266;52.434;17.056;2023-06-10T11:31:18;10.20;;;4.60;;
54368;SDS011;40266;52.434;17.056;2023-06-10T11:34:03;8.40;;;5.10;;
54368;SDS011;40266;52.434;17.056;2023-06-10T11:36:49;7.10;;;4.40;;
54368;SDS011;40266;52.434;17.056;2023-06-10T11:39:32;14.80;;;5.70;;
54368;SDS011;40266;52.434;17.056;2023-06-10T11:42:16;9.30;;;4.80;;
54368;SDS011;40266;52.434;17.056;2023-06-10T11:44:59;12.10;;;4.80;;
54368;SDS011;40266;52.434;17.056;2023-06-10T11:48:06;14.10;;;5.70;;
54368;SDS011;40266;52.434;17.056;2023-06-10T11:50:48;22.40;;;5.80;;
54368;SDS011;40266;52.434;17.056;2023-06-10T11:53:32;13.30;;;5.20;;
54368;SDS011;40266;52.434;17.056;2023-06-10T11:56:24;11.60;;;5.60;;
54368;SDS011;40266;52.434;17.056;2023-06-10T11:59:10;9.60;;;4.10;;
54368;SDS011;40266;52.434;17.056;2023-06-10T12:01:53;7.70;;;5.10;;
54368;SDS011;40266;52.434;17.056;2023-06-10T12:04:36;17.80;;;4.90;;
54368;SDS011;40266;52.434;17.056;2023-06-10T12:07:19;16.60;;;4.90;;
54368;SDS011;40266;52.434;17.056;2023-06-10T12:10:04;8.10;;;4.40;;
54368;SDS011;40266;52.434;17.056;2023-06-10T12:13:08;8.30;;;4.80;;
54368;SDS011;40266;52.434;17.056;2023-06-10T12:15:52;11.50;;;4.60;;
54368;SDS011;40266;52.434;17.056;2023-06-10T12:18:35;11.70;;;4.80;;
54368;SDS011;40266;52.434;17.056;2023-06-10T12:21:19;9.30;;;4.50;;
54368;SDS011;40266;52.434;17.056;2023-06-10T12:24:06;12.20;;;5.50;;
54368;SDS011;40266;52.434;17.056;2023-06-10T12:26:53;12.80;;;4.90;;
54368;SDS011;40266;52.434;17.056;2023-06-10T12:29:38;12.60;;;5.80;;
54368;SDS011;40266;52.434;17.056;2023-06-10T12:32:21;8.00;;;4.30;;
54368;SDS011;40266;52.434;17.056;2023-06-10T12:35:10;10.60;;;4.90;;
54368;SDS011;40266;52.434;17.056;2023-06-10T12:40:47;11.20;;;4.90;;
54368;SDS011;40266;52.434;17.056;2023-06-10T12:43:30;9.90;;;4.50;;
54368;SDS011;40266;52.434;17.056;2023-06-10T12:46:14;19.70;;;5.70;;
54368;SDS011;40266;52.434;17.056;2023-06-10T12:48:57;9.20;;;4.40;;
54368;SDS011;40266;52.434;17.056;2023-06-10T12:51:40;9.40;;;4.20;;
54368;SDS011;40266;52.434;17.056;2023-06-10T12:54:23;12.30;;;4.70;;
54368;SDS011;40266;52.434;17.056;2023-06-10T12:57:06;5.50;;;3.70;;
54368;SDS011;40266;52.434;17.056;2023-06-10T12:59:49;7.90;;;4.40;;
54368;SDS011;40266;52.434;17.056;2023-06-10T13:02:35;12.70;;;5.50;;
54368;SDS011;40266;52.434;17.056;2023-06-10T13:05:18;21.10;;;5.10;;
54368;SDS011;40266;52.434;17.056;2023-06-10T13:08:03;7.10;;;4.30;;
54368;SDS011;40266;52.434;17.056;2023-06-10T13:10:52;13.80;;;4.20;;
54368;SDS011;40266;52.434;17.056;2023-06-10T13:13:36;8.50;;;4.00;;
54368;SDS011;40266;52.434;17.056;2023-06-10T13:16:20;13.00;;;5.20;;
54368;SDS011;40266;52.434;17.056;2023-06-10T13:19:03;9.80;;;4.20;;
54368;SDS011;40266;52.434;17.056;2023-06-10T13:21:48;11.00;;;5.20;;
54368;SDS011;40266;52.434;17.056;2023-06-10T13:24:31;6.90;;;4.00;;
54368;SDS011;40266;52.434;17.056;2023-06-10T13:27:14;12.40;;;4.70;;
54368;SDS011;40266;52.434;17.056;2023-06-10T13:29:57;9.80;;;4.30;;
54368;SDS011;40266;52.434;17.056;2023-06-10T13:32:40;10.90;;;4.50;;
54368;SDS011;40266;52.434;17.056;2023-06-10T13:35:23;7.70;;;4.10;;
54368;SDS011;40266;52.434;17.056;2023-06-10T13:38:06;7.70;;;4.40;;
54368;SDS011;40266;52.434;17.056;2023-06-10T13:40:49;9.20;;;4.70;;
54368;SDS011;40266;52.434;17.056;2023-06-10T13:43:33;29.20;;;6.40;;
54368;SDS011;40266;52.434;17.056;2023-06-10T13:46:16;12.70;;;4.10;;
54368;SDS011;40266;52.434;17.056;2023-06-10T13:48:59;11.70;;;4.00;;
54368;SDS011;40266;52.434;17.056;2023-06-10T13:51:42;9.20;;;4.30;;
54368;SDS011;40266;52.434;17.056;2023-06-10T13:54:25;6.50;;;4.40;;
54368;SDS011;40266;52.434;17.056;2023-06-10T13:57:09;9.00;;;4.50;;
54368;SDS011;40266;52.434;17.056;2023-06-10T13:59:53;11.60;;;4.90;;
54368;SDS011;40266;52.434;17.056;2023-06-10T14:02:36;7.60;;;4.00;;
54368;SDS011;40266;52.434;17.056;2023-06-10T14:05:20;11.20;;;4.60;;
54368;SDS011;40266;52.434;17.056;2023-06-10T14:08:03;8.10;;;4.60;;
54368;SDS011;40266;52.434;17.056;2023-06-10T14:10:47;21.90;;;4.80;;
54368;SDS011;40266;52.434;17.056;2023-06-10T14:13:31;12.10;;;4.00;;
54368;SDS011;40266;52.434;17.056;2023-06-10T14:16:13;7.70;;;4.30;;
54368;SDS011;40266;52.434;17.056;2023-06-10T14:18:57;9.50;;;4.00;;
54368;SDS011;40266;52.434;17.056;2023-06-10T14:21:39;13.90;;;4.50;;
54368;SDS011;40266;52.434;17.056;2023-06-10T14:24:22;13.40;;;4.30;;
54368;SDS011;40266;52.434;17.056;2023-06-10T14:27:06;7.50;;;3.90;;
54368;SDS011;40266;52.434;17.056;2023-06-10T14:29:49;9.10;;;4.00;;
54368;SDS011;40266;52.434;17.056;2023-06-10T14:32:32;27.50;;;6.40;;
54368;SDS011;40266;52.434;17.056;2023-06-10T14:35:15;12.40;;;4.30;;
54368;SDS011;40266;52.434;17.056;2023-06-10T14:37:58;7.90;;;4.00;;
54368;SDS011;40266;52.434;17.056;2023-06-10T14:40:41;9.00;;;4.40;;
54368;SDS011;40266;52.434;17.056;2023-06-10T14:43:24;10.20;;;3.60;;
54368;SDS011;40266;52.434;17.056;2023-06-10T14:46:07;9.50;;;3.60;;
54368;SDS011;40266;52.434;17.056;2023-06-10T14:48:50;9.60;;;4.30;;
54368;SDS011;40266;52.434;17.056;2023-06-10T14:51:33;13.60;;;4.10;;
54368;SDS011;40266;52.434;17.056;2023-06-10T14:54:18;8.20;;;3.60;;
54368;SDS011;40266;52.434;17.056;2023-06-10T14:57:01;8.10;;;4.40;;
54368;SDS011;40266;52.434;17.056;2023-06-10T14:59:45;15.70;;;4.00;;
54368;SDS011;40266;52.434;17.056;2023-06-10T15:02:28;12.90;;;4.10;;
54368;SDS011;40266;52.434;17.056;2023-06-10T15:05:11;8.00;;;3.70;;
54368;SDS011;40266;52.434;17.056;2023-06-10T15:07:54;9.30;;;3.80;;
54368;SDS011;40266;52.434;17.056;2023-06-10T15:10:37;10.00;;;4.10;;
54368;SDS011;40266;52.434;17.056;2023-06-10T15:13:20;7.20;;;3.80;;
54368;SDS011;40266;52.434;17.056;2023-06-10T15:16:03;10.20;;;4.40;;
54368;SDS011;40266;52.434;17.056;2023-06-10T15:18:46;8.80;;;3.80;;
54368;SDS011;40266;52.434;17.056;2023-06-10T15:21:29;9.70;;;4.30;;
54368;SDS011;40266;52.434;17.056;2023-06-10T15:24:12;30.10;;;5.30;;
54368;SDS011;40266;52.434;17.056;2023-06-10T15:26:55;10.30;;;3.80;;
54368;SDS011;40266;52.434;17.056;2023-06-10T15:29:39;12.20;;;4.00;;
54368;SDS011;40266;52.434;17.056;2023-06-10T15:32:22;5.80;;;3.40;;
54368;SDS011;40266;52.434;17.056;2023-06-10T15:35:05;6.80;;;3.80;;
54368;SDS011;40266;52.434;17.056;2023-06-10T15:37:49;8.70;;;3.60;;
54368;SDS011;40266;52.434;17.056;2023-06-10T15:40:32;13.50;;;4.10;;
54368;SDS011;40266;52.434;17.056;2023-06-10T15:43:15;16.60;;;4.50;;
54368;SDS011;40266;52.434;17.056;2023-06-10T15:45:58;7.20;;;3.50;;
54368;SDS011;40266;52.434;17.056;2023-06-10T15:48:41;8.50;;;4.00;;
54368;SDS011;40266;52.434;17.056;2023-06-10T15:51:24;13.50;;;3.90;;
54368;SDS011;40266;52.434;17.056;2023-06-10T15:54:07;7.90;;;3.50;;
54368;SDS011;40266;52.434;17.056;2023-06-10T15:56:50;23.70;;;5.50;;
54368;SDS011;40266;52.434;17.056;2023-06-10T15:59:32;10.30;;;3.80;;
54368;SDS011;40266;52.434;17.056;2023-06-10T16:02:15;4.20;;;3.00;;
54368;SDS011;40266;52.434;17.056;2023-06-10T16:04:58;26.90;;;5.60;;
54368;SDS011;40266;52.434;17.056;2023-06-10T16:07:41;10.30;;;3.90;;
54368;SDS011;40266;52.434;17.056;2023-06-10T16:10:25;11.50;;;3.90;;
54368;SDS011;40266;52.434;17.056;2023-06-10T16:13:08;6.30;;;3.60;;
54368;SDS011;40266;52.434;17.056;2023-06-10T16:15:51;11.50;;;3.90;;